OPA Logo
 
ASOS:
At:2021.11.28 2315 UTC
Wind:230° @ 12KT
Viz: 10 mile(s)
Sky: clear
Temp: 64 F (18 C)
DewP: 32 F (0 C)
RH: 29%
Baro: 30.21 in.
ob: KBDN 282315Z AUTO 23012KT 10SM CLR 18/M00 A3021 RMK AO2

ASOS: KRDM
At:2021.11.28 2256 UTC
Wind:360° @ 5KT
Viz: 10 mile(s)
Sky: clear
Temp: 64.0 F (17.8 C)
DewP: 37.9 F (3.3 C)
RH: 37%
Baro: 30.17 in.
ob: KRDM 282256Z 36005KT 10SM CLR 18/03 A3017 RMK AO2 SLP202 T01780033
Apache-SSL Logo

Valid HTML 4.01!

Local FAA Notices



15 May 2002 - FAA APPROVES 4 new antennas near St. Charles Hospital


2 May 2002, FAA Northwest Mountain Region Letter to Airmen 02-01

VFR Practice Approaches: Page 1, Page 2, Page 3, Page 4.


11 Apr 2002 - FAA Public Notice, 4 new antennas near St. Charles Hospital



Web page by: gem@rellim.com